KFHU/FHU METAR and TAF weather

Enter ICAO airport designator
Station Type Date Time Source
KFHU METAR 2020/01/20 15:58 UTC NOAA

KFHU 201558Z AUTO 08003KT 10SM CLR 10/00 A3027 RMK AO2 SLP222 T00950001


Station Type Date Time Source
KFHU Decoded METAR 2020/01/20 15:58 UTC NOAA

Fort Huachuca, Libby AAF Ft Huachuca, AZ, United States (KFHU) 46-98N 110-20W
Jan 20, 2020 - 10:58 AM EST / 2020.01.20 1558 UTC
Wind: from the E (080 degrees) at 3 MPH (3 KT):0
Visibility: 10 mile(s):0
Sky conditions: clear
Temperature: 49.1 F (9.5 C)
Dew Point: 32.2 F (0.1 C)
Relative Humidity: 51%
Pressure (altimeter): 30.27 in. Hg (1025 hPa)
ob: KFHU 201558Z AUTO 08003KT 10SM CLR 10/00 A3027 RMK AO2 SLP222 T00950001
cycle: 16

Station Type Date Time Source
KFHU TAF 2020/01/18 02:03 UTC NOAA

TAF KFHU 180200Z 1802/1908 26009KT 9999 SKC QNH3011INS TX19/1822Z TNM02/1812Z LAST NO
AMDS AFT 1806 NEXT 2102

Example: see airport list